Terminal Aerodrome Forecast
Issued by NWS Lake Charles, LA

Home | Current Version | Previous Version | Text Only | Print | Product List | Glossary On
Versions: 1 2 3 4 5 6 7 8 9 10 11 12 13 14 15 16 17 18 19 20 21 22
142
FTUS44 KLCH 180520
TAFAEX
TAF
KAEX 180520Z 1806/1906 17004KT P6SM FEW050
     FM180900 VRB03KT 6SM BR SCT005
      TEMPO 1810/1813 BKN005
     FM181500 25005KT P6SM SCT015
     FM181800 23006KT P6SM VCTS SCT040CB BKN250
     FM190100 VRB03KT P6SM FEW050 SCT250=

USA.gov is the U.S. government's official web portal to all federal, state and local government web resources and services.